createdAt,value
2018-12-09T00:01:07.385Z,71.66
2018-12-09T00:03:34.830Z,71.35
2018-12-09T00:06:02.424Z,70.30
2018-12-09T00:08:29.977Z,70.15
2018-12-09T00:10:57.498Z,69.21
2018-12-09T00:13:24.948Z,69.06
2018-12-09T00:15:52.590Z,69.25
2018-12-09T00:18:20.025Z,69.56
2018-12-09T00:20:47.515Z,69.92
2018-12-09T00:23:15.044Z,70.20
2018-12-09T00:25:42.456Z,70.47
2018-12-09T00:28:09.964Z,70.56
2018-12-09T00:30:37.572Z,70.19
2018-12-09T00:33:05.082Z,70.42
2018-12-09T00:35:32.580Z,70.02
2018-12-09T00:38:00.027Z,69.27
2018-12-09T00:40:28.032Z,67.84
2018-12-09T00:42:55.500Z,67.06
2018-12-09T00:45:23.504Z,66.42
2018-12-09T00:47:51.064Z,65.49
2018-12-09T00:50:18.645Z,65.39
2018-12-09T00:52:46.061Z,65.37
2018-12-09T00:55:13.689Z,65.32
2018-12-09T00:57:41.327Z,65.62
2018-12-09T01:00:09.706Z,65.45
2018-12-09T01:02:37.187Z,65.23
2018-12-09T01:05:04.635Z,65.11
2018-12-09T01:07:32.988Z,65.05
2018-12-09T01:10:00.481Z,64.45
2018-12-09T01:12:27.933Z,64.41
2018-12-09T01:14:55.415Z,64.30
2018-12-09T01:17:22.789Z,63.87
2018-12-09T01:19:52.532Z,63.89
2018-12-09T01:22:19.961Z,63.73
2018-12-09T01:24:47.387Z,63.79
2018-12-09T01:27:14.905Z,63.53
2018-12-09T01:29:42.416Z,63.77
2018-12-09T01:32:09.835Z,63.89
2018-12-09T01:34:37.250Z,63.92
2018-12-09T01:37:04.667Z,63.99
2018-12-09T01:39:32.080Z,63.89
2018-12-09T01:41:59.505Z,63.65
2018-12-09T01:44:26.911Z,63.50
2018-12-09T01:46:54.330Z,63.45
2018-12-09T01:49:21.887Z,63.89
2018-12-09T01:51:49.433Z,64.39
2018-12-09T01:54:17.017Z,65.20
2018-12-09T01:56:45.076Z,66.65
2018-12-09T01:59:12.497Z,67.11
2018-12-09T02:01:40.041Z,67.73
2018-12-09T02:04:07.440Z,67.76
2018-12-09T02:06:34.841Z,67.30
2018-12-09T02:09:02.317Z,66.47
2018-12-09T02:11:29.725Z,65.93
2018-12-09T02:13:57.151Z,65.70
2018-12-09T02:16:24.558Z,65.92
2018-12-09T02:18:58.033Z,66.15
2018-12-09T02:21:25.474Z,66.17
2018-12-09T02:23:53.674Z,66.51
2018-12-09T02:26:21.083Z,66.47
2018-12-09T02:28:48.513Z,66.55
2018-12-09T02:31:15.944Z,66.71
2018-12-09T02:33:44.349Z,66.44
2018-12-09T02:36:11.871Z,65.97
2018-12-09T02:38:39.356Z,66.11
2018-12-09T02:41:06.788Z,66.36
2018-12-09T02:43:34.198Z,66.92
2018-12-09T02:46:01.660Z,67.47
2018-12-09T02:48:29.063Z,67.57
2018-12-09T02:50:56.487Z,67.78
2018-12-09T02:53:23.950Z,68.29
2018-12-09T02:55:51.367Z,68.21
2018-12-09T02:58:18.775Z,67.98
2018-12-09T03:00:46.195Z,67.49
2018-12-09T03:03:13.658Z,66.46
2018-12-09T03:05:41.058Z,66.09
2018-12-09T03:08:08.469Z,65.94
2018-12-09T03:10:35.869Z,66.06
2018-12-09T03:13:03.856Z,66.14
2018-12-09T03:15:31.272Z,66.80
2018-12-09T03:17:58.897Z,67.94
2018-12-09T03:20:26.494Z,69.34
2018-12-09T03:22:53.945Z,69.88
2018-12-09T03:25:21.378Z,70.69
2018-12-09T03:27:48.794Z,71.57
2018-12-09T03:30:16.278Z,72.30
2018-12-09T03:32:43.766Z,72.62
2018-12-09T03:35:11.221Z,73.24
2018-12-09T03:37:38.670Z,74.04
2018-12-09T03:40:06.143Z,75.11
2018-12-09T03:42:33.632Z,75.71
2018-12-09T03:45:01.031Z,75.49
2018-12-09T03:47:28.471Z,75.60
2018-12-09T03:49:55.892Z,75.60
2018-12-09T03:52:23.302Z,75.56
2018-12-09T03:54:50.722Z,75.26
2018-12-09T03:57:18.152Z,74.99
2018-12-09T03:59:45.617Z,75.38
2018-12-09T04:02:13.495Z,75.44
2018-12-09T04:04:41.005Z,75.42
2018-12-09T04:07:08.419Z,75.11
2018-12-09T04:09:35.830Z,74.89
2018-12-09T04:12:03.243Z,74.84
2018-12-09T04:14:30.659Z,74.62
2018-12-09T04:16:58.061Z,74.58
2018-12-09T04:19:25.481Z,74.33
2018-12-09T04:21:52.904Z,73.93
2018-12-09T04:24:20.316Z,73.75
2018-12-09T04:26:47.841Z,73.75
2018-12-09T04:29:15.190Z,73.46
2018-12-09T04:31:42.602Z,73.51
2018-12-09T04:34:10.035Z,73.71
2018-12-09T04:36:37.462Z,71.35
2018-12-09T04:39:04.907Z,73.01
2018-12-09T04:41:32.313Z,73.98
2018-12-09T04:43:59.771Z,74.68
2018-12-09T04:46:27.257Z,74.91
2018-12-09T04:48:54.678Z,75.12
2018-12-09T04:51:22.112Z,75.62
2018-12-09T04:53:49.601Z,75.56
2018-12-09T04:56:17.005Z,75.67
2018-12-09T04:58:44.489Z,75.73
2018-12-09T05:01:11.899Z,75.70
2018-12-09T05:03:39.325Z,75.99
2018-12-09T05:06:06.732Z,76.26
2018-12-09T05:08:34.132Z,76.51
2018-12-09T05:11:01.618Z,75.47
2018-12-09T05:13:29.100Z,74.48
2018-12-09T05:15:56.535Z,73.10
2018-12-09T05:18:23.935Z,71.88
2018-12-09T05:20:52.280Z,72.21
2018-12-09T05:23:19.701Z,70.25
2018-12-09T05:25:47.873Z,68.25
2018-12-09T05:28:15.290Z,67.21
2018-12-09T05:30:42.680Z,65.88
2018-12-09T05:33:10.105Z,63.65
2018-12-09T05:35:37.503Z,62.52
2018-12-09T05:38:04.931Z,61.28
2018-12-09T05:40:32.358Z,61.51
2018-12-09T05:42:59.763Z,61.39
2018-12-09T05:45:27.189Z,60.43
2018-12-09T05:47:54.581Z,61.79
2018-12-09T05:50:22.009Z,63.38
2018-12-09T05:52:49.466Z,65.14
2018-12-09T05:55:16.920Z,66.97
2018-12-09T05:57:44.785Z,65.93
2018-12-09T06:00:11.808Z,63.08
2018-12-09T06:02:45.938Z,61.00
2018-12-09T06:05:13.341Z,60.73
2018-12-09T06:07:40.753Z,60.31
2018-12-09T06:10:08.215Z,60.33
2018-12-09T06:12:35.627Z,59.79
2018-12-09T06:15:03.079Z,60.29
2018-12-09T06:17:30.495Z,60.61
2018-12-09T06:19:57.935Z,61.13
2018-12-09T06:22:25.598Z,61.16
2018-12-09T06:24:53.069Z,61.01
2018-12-09T06:27:20.483Z,61.18
2018-12-09T06:29:47.919Z,60.24
2018-12-09T06:32:15.336Z,59.72
2018-12-09T06:34:42.746Z,59.16
2018-12-09T06:37:10.312Z,58.21
2018-12-09T06:39:37.741Z,58.32
2018-12-09T06:42:05.183Z,58.12
2018-12-09T06:44:32.708Z,59.00
2018-12-09T06:47:00.294Z,59.82
2018-12-09T06:49:27.734Z,61.54
2018-12-09T06:51:55.198Z,62.25
2018-12-09T06:54:22.641Z,62.75
2018-12-09T06:56:50.051Z,62.36
2018-12-09T06:59:17.511Z,62.34
2018-12-09T07:01:44.911Z,62.25
2018-12-09T07:04:12.313Z,62.89
2018-12-09T07:06:40.603Z,62.54
2018-12-09T07:09:08.116Z,61.87
2018-12-09T07:11:36.174Z,62.03
2018-12-09T07:14:03.607Z,61.47
2018-12-09T07:16:31.148Z,61.08
2018-12-09T07:18:59.189Z,60.21
2018-12-09T07:21:26.643Z,59.88
2018-12-09T07:23:54.071Z,60.35
2018-12-09T07:26:21.638Z,60.50
2018-12-09T07:28:49.111Z,60.49
2018-12-09T07:31:16.724Z,60.85
2018-12-09T07:33:44.218Z,61.01
2018-12-09T07:36:11.636Z,60.43
2018-12-09T07:38:39.576Z,60.79
2018-12-09T07:41:06.958Z,61.70
2018-12-09T07:43:34.419Z,62.48
2018-12-09T07:46:01.923Z,63.52
2018-12-09T07:48:29.357Z,64.75
2018-12-09T07:50:56.900Z,65.74
2018-12-09T07:53:24.868Z,66.55
2018-12-09T07:55:52.403Z,67.55
2018-12-09T07:58:19.829Z,68.08
2018-12-09T08:00:47.234Z,68.75
2018-12-09T08:03:14.665Z,69.25
2018-12-09T08:05:42.067Z,69.72
2018-12-09T08:08:09.668Z,70.59
2018-12-09T08:10:37.148Z,71.68
2018-12-09T08:13:04.560Z,72.53
2018-12-09T08:15:31.978Z,73.58
2018-12-09T08:17:59.378Z,74.46
2018-12-09T08:20:26.781Z,74.88
2018-12-09T08:22:54.191Z,75.59
2018-12-09T08:25:21.605Z,75.93
2018-12-09T08:27:49.012Z,75.74
2018-12-09T08:30:16.419Z,76.01
2018-12-09T08:32:43.820Z,76.18
2018-12-09T08:35:11.259Z,76.24
2018-12-09T08:37:38.666Z,76.12
2018-12-09T08:40:06.073Z,76.05
2018-12-09T08:42:33.490Z,76.21
2018-12-09T08:45:01.124Z,75.85
2018-12-09T08:47:28.526Z,75.57
2018-12-09T08:49:55.942Z,76.05
2018-12-09T08:52:23.333Z,77.11
2018-12-09T08:54:50.731Z,77.46
2018-12-09T08:57:18.145Z,78.33
2018-12-09T08:59:45.660Z,79.08
2018-12-09T09:02:13.063Z,79.68
2018-12-09T09:04:40.042Z,79.70
2018-12-09T09:07:07.930Z,80.49
2018-12-09T09:09:34.927Z,80.59
2018-12-09T09:12:02.202Z,79.79
2018-12-09T09:14:29.663Z,78.24
2018-12-09T09:16:57.091Z,76.79
2018-12-09T09:19:24.541Z,76.08
2018-12-09T09:21:51.990Z,75.48
2018-12-09T09:24:19.403Z,74.66
2018-12-09T09:26:46.800Z,73.96
2018-12-09T09:29:14.315Z,72.05
2018-12-09T09:31:41.730Z,70.77
2018-12-09T09:34:09.145Z,68.89
2018-12-09T09:36:36.537Z,67.33
2018-12-09T09:39:03.965Z,66.72
2018-12-09T09:41:31.422Z,64.70
2018-12-09T09:43:58.878Z,64.96
2018-12-09T09:46:26.296Z,64.44
2018-12-09T09:48:53.727Z,64.36
2018-12-09T09:51:21.132Z,63.87
2018-12-09T09:53:48.527Z,63.52
2018-12-09T09:56:15.950Z,62.51
2018-12-09T09:58:43.515Z,61.39
2018-12-09T10:01:10.955Z,62.33
2018-12-09T10:03:38.400Z,63.30
2018-12-09T10:06:05.876Z,64.52
2018-12-09T10:08:33.310Z,64.82
2018-12-09T10:11:00.711Z,64.86
2018-12-09T10:13:28.252Z,64.28
2018-12-09T10:15:55.662Z,61.22
2018-12-09T10:18:23.126Z,60.61
2018-12-09T10:20:50.546Z,59.87
2018-12-09T10:23:17.961Z,58.99
2018-12-09T10:25:45.520Z,57.91
2018-12-09T10:28:12.925Z,58.65
2018-12-09T10:30:40.348Z,58.41
2018-12-09T10:33:07.814Z,57.98
2018-12-09T10:35:35.278Z,58.47
2018-12-09T10:38:02.703Z,59.26
2018-12-09T10:40:30.460Z,57.14
2018-12-09T10:42:57.880Z,57.92
2018-12-09T10:45:25.303Z,56.89
2018-12-09T10:47:52.723Z,55.11
2018-12-09T10:50:20.146Z,56.10
2018-12-09T10:52:47.866Z,56.44
2018-12-09T10:55:15.416Z,56.37
2018-12-09T10:57:42.847Z,55.60
2018-12-09T11:00:10.250Z,55.15
2018-12-09T11:02:37.678Z,55.74
2018-12-09T11:05:05.123Z,55.77
2018-12-09T11:07:32.547Z,56.42
2018-12-09T11:09:59.977Z,56.88
2018-12-09T11:12:27.425Z,56.12
2018-12-09T11:14:55.102Z,56.68
2018-12-09T11:17:22.539Z,56.71
2018-12-09T11:19:49.990Z,57.20
2018-12-09T11:22:17.654Z,56.86
2018-12-09T11:24:46.484Z,57.02
2018-12-09T11:27:13.905Z,56.30
2018-12-09T11:29:41.431Z,55.55
2018-12-09T11:32:09.533Z,55.86
2018-12-09T11:34:36.989Z,55.74
2018-12-09T11:37:04.402Z,55.18
2018-12-09T11:39:32.436Z,56.13
2018-12-09T11:41:59.851Z,56.13
2018-12-09T11:44:27.277Z,56.60
2018-12-09T11:46:55.328Z,56.74
2018-12-09T11:49:22.775Z,57.05
2018-12-09T11:51:50.192Z,57.58
2018-12-09T11:54:17.610Z,57.51
2018-12-09T11:56:45.046Z,58.18
2018-12-09T11:59:12.453Z,58.69
2018-12-09T12:01:39.861Z,59.20
2018-12-09T12:04:07.420Z,59.05
2018-12-09T12:06:34.818Z,55.59
2018-12-09T12:09:02.251Z,54.88
2018-12-09T12:11:29.744Z,56.08
2018-12-09T12:13:57.171Z,56.24
2018-12-09T12:16:24.742Z,57.81
2018-12-09T12:18:52.153Z,58.08
2018-12-09T12:21:19.558Z,58.51
2018-12-09T12:23:46.975Z,59.19
2018-12-09T12:26:14.614Z,59.98
2018-12-09T12:28:42.027Z,60.53
2018-12-09T12:31:09.688Z,60.62
2018-12-09T12:33:37.106Z,60.42
2018-12-09T12:36:04.519Z,60.92
2018-12-09T12:38:32.144Z,61.15
2018-12-09T12:40:59.483Z,61.11
2018-12-09T12:43:26.893Z,60.87
2018-12-09T12:45:54.415Z,60.58
2018-12-09T12:48:21.893Z,60.48
2018-12-09T12:50:49.347Z,60.63
2018-12-09T12:53:16.759Z,60.77
2018-12-09T12:55:44.184Z,61.12
2018-12-09T12:58:11.600Z,62.33
2018-12-09T13:00:39.041Z,61.37
2018-12-09T13:03:06.649Z,62.57
2018-12-09T13:05:34.140Z,62.69
2018-12-09T13:08:01.815Z,62.68
2018-12-09T13:10:29.323Z,62.28
2018-12-09T13:12:56.752Z,61.80
2018-12-09T13:15:25.014Z,61.32
2018-12-09T13:17:52.638Z,61.08
2018-12-09T13:20:20.061Z,60.84
2018-12-09T13:22:47.612Z,60.53
2018-12-09T13:25:15.759Z,60.15
2018-12-09T13:27:43.251Z,60.89
2018-12-09T13:30:10.682Z,61.23
2018-12-09T13:32:38.125Z,61.73
2018-12-09T13:35:05.527Z,62.54
2018-12-09T13:37:33.002Z,62.67
2018-12-09T13:40:00.411Z,62.15
2018-12-09T13:42:27.847Z,63.41
2018-12-09T13:44:55.306Z,63.21
2018-12-09T13:47:22.683Z,64.04
2018-12-09T13:49:50.140Z,64.08
2018-12-09T13:52:18.439Z,63.10
2018-12-09T13:54:46.015Z,62.56
2018-12-09T13:57:13.444Z,62.13
2018-12-09T13:59:40.882Z,62.96
2018-12-09T14:02:08.325Z,63.24
2018-12-09T14:04:35.896Z,64.59
2018-12-09T14:07:03.336Z,65.89
2018-12-09T14:09:30.793Z,66.52
2018-12-09T14:11:58.187Z,67.82
2018-12-09T14:14:25.634Z,68.78
2018-12-09T14:16:53.120Z,69.62
2018-12-09T14:19:20.544Z,70.93
2018-12-09T14:21:47.999Z,71.36
2018-12-09T14:24:15.426Z,71.50
2018-12-09T14:26:42.899Z,71.96
2018-12-09T14:29:10.403Z,71.65
2018-12-09T14:31:37.909Z,72.00
2018-12-09T14:34:05.473Z,72.30
2018-12-09T14:36:32.868Z,73.00
2018-12-09T14:39:00.304Z,73.45
2018-12-09T14:41:27.729Z,73.17
2018-12-09T14:43:55.118Z,72.95
2018-12-09T14:46:22.557Z,72.77
2018-12-09T14:48:50.014Z,72.41
2018-12-09T14:51:17.446Z,72.66
2018-12-09T14:53:45.763Z,73.58
2018-12-09T14:56:13.229Z,74.71
2018-12-09T14:58:40.642Z,76.16
2018-12-09T15:01:08.046Z,76.89
2018-12-09T15:03:35.481Z,77.62
2018-12-09T15:06:02.918Z,77.77
2018-12-09T15:08:30.327Z,77.66
2018-12-09T15:10:57.888Z,77.28
2018-12-09T15:13:25.472Z,76.49
2018-12-09T15:15:53.661Z,76.43
2018-12-09T15:18:21.077Z,76.34
2018-12-09T15:20:48.559Z,76.50
2018-12-09T15:23:16.117Z,76.43
2018-12-09T15:25:44.135Z,76.19
2018-12-09T15:28:11.607Z,76.36
2018-12-09T15:30:39.025Z,76.66
2018-12-09T15:33:06.471Z,76.57
2018-12-09T15:35:34.484Z,76.59
2018-12-09T15:38:02.016Z,76.12
2018-12-09T15:40:29.430Z,75.95
2018-12-09T15:42:56.859Z,75.99
2018-12-09T15:45:24.267Z,76.27
2018-12-09T15:47:51.704Z,76.51
2018-12-09T15:50:19.165Z,77.38
2018-12-09T15:52:46.709Z,77.81
2018-12-09T15:55:14.105Z,78.27
2018-12-09T15:57:41.529Z,78.29
2018-12-09T16:00:08.963Z,78.29
2018-12-09T16:02:36.503Z,78.53
2018-12-09T16:05:04.683Z,78.57
2018-12-09T16:07:32.096Z,78.63
2018-12-09T16:09:59.552Z,78.89
2018-12-09T16:12:26.973Z,78.91
2018-12-09T16:14:54.426Z,78.59
2018-12-09T16:17:21.826Z,78.61
2018-12-09T16:19:49.332Z,78.66
2018-12-09T16:22:16.726Z,78.66
2018-12-09T16:24:44.150Z,78.68
2018-12-09T16:27:11.570Z,78.95
2018-12-09T16:29:38.978Z,78.77
2018-12-09T16:32:06.434Z,78.89
2018-12-09T16:34:33.378Z,78.77
2018-12-09T16:37:00.471Z,79.26
2018-12-09T16:39:27.504Z,79.67
2018-12-09T16:41:54.667Z,79.89
2018-12-09T16:44:21.626Z,80.17
2018-12-09T16:46:48.664Z,79.95
2018-12-09T16:49:15.621Z,79.70
2018-12-09T16:51:42.565Z,79.21
2018-12-09T16:54:09.686Z,79.79
2018-12-09T16:56:37.048Z,80.31
2018-12-09T16:59:04.168Z,80.18
2018-12-09T17:01:31.144Z,79.73
2018-12-09T17:03:58.892Z,79.67
2018-12-09T17:06:25.934Z,79.47
2018-12-09T17:08:54.089Z,78.54
2018-12-09T17:11:21.065Z,78.88
2018-12-09T17:13:48.009Z,79.11
2018-12-09T17:16:14.955Z,79.27
2018-12-09T17:18:41.913Z,79.39
2018-12-09T17:21:08.924Z,79.21
2018-12-09T17:23:36.341Z,79.51
2018-12-09T17:26:03.888Z,79.39
2018-12-09T17:28:31.582Z,79.21
2018-12-09T17:30:59.577Z,79.25
2018-12-09T17:33:27.069Z,79.27
2018-12-09T17:35:54.554Z,79.32
2018-12-09T17:38:21.952Z,79.20
2018-12-09T17:40:49.366Z,78.91
2018-12-09T17:43:16.762Z,79.07
2018-12-09T17:45:44.212Z,79.25
2018-12-09T17:48:11.696Z,79.32
2018-12-09T17:50:39.101Z,79.65
2018-12-09T17:53:06.522Z,80.01
2018-12-09T17:55:34.392Z,80.23
2018-12-09T17:58:01.844Z,80.28
2018-12-09T18:00:29.239Z,80.22
2018-12-09T18:02:56.831Z,80.14
2018-12-09T18:05:24.258Z,79.70
2018-12-09T18:07:51.710Z,79.56
2018-12-09T18:10:19.375Z,79.19
2018-12-09T18:12:48.193Z,79.00
2018-12-09T18:15:14.778Z,78.72
2018-12-09T18:17:42.292Z,78.54
2018-12-09T18:20:09.703Z,78.77
2018-12-09T18:22:37.339Z,78.59
2018-12-09T18:25:04.760Z,78.38
2018-12-09T18:27:32.286Z,78.16
2018-12-09T18:29:59.751Z,77.71
2018-12-09T18:32:27.308Z,77.52
2018-12-09T18:34:54.723Z,76.98
2018-12-09T18:37:22.151Z,76.56
2018-12-09T18:39:51.203Z,76.67
2018-12-09T18:42:18.705Z,76.79
2018-12-09T18:44:46.134Z,76.84
2018-12-09T18:47:13.970Z,76.88
2018-12-09T18:49:41.411Z,76.05
2018-12-09T18:52:08.800Z,75.70
2018-12-09T18:54:36.221Z,75.87
2018-12-09T18:57:03.739Z,76.24
2018-12-09T18:59:31.172Z,76.32
2018-12-09T19:01:58.724Z,76.29
2018-12-09T19:04:26.170Z,76.41
2018-12-09T19:06:53.577Z,76.10
2018-12-09T19:09:21.006Z,76.04
2018-12-09T19:11:48.436Z,75.73
2018-12-09T19:14:15.922Z,75.34
2018-12-09T19:16:43.484Z,75.31
2018-12-09T19:19:11.704Z,75.29
2018-12-09T19:21:39.199Z,75.04
2018-12-09T19:24:06.607Z,75.36
2018-12-09T19:26:34.047Z,75.28
2018-12-09T19:29:01.634Z,74.66
2018-12-09T19:31:29.056Z,74.51
2018-12-09T19:33:56.487Z,74.71
2018-12-09T19:36:23.962Z,74.65
2018-12-09T19:38:51.375Z,74.07
2018-12-09T19:41:18.802Z,73.83
2018-12-09T19:43:46.217Z,73.65
2018-12-09T19:46:13.630Z,73.07
2018-12-09T19:48:41.102Z,71.34
2018-12-09T19:51:08.667Z,71.85
2018-12-09T19:53:36.076Z,72.43
2018-12-09T19:56:04.448Z,71.97
2018-12-09T19:58:30.990Z,71.20
2018-12-09T20:00:58.389Z,71.95
2018-12-09T20:03:25.837Z,72.02
2018-12-09T20:05:53.250Z,71.88
2018-12-09T20:08:20.666Z,71.03
2018-12-09T20:10:48.064Z,71.34
2018-12-09T20:13:15.480Z,70.52
2018-12-09T20:15:42.905Z,70.57
2018-12-09T20:18:10.333Z,69.91
2018-12-09T20:20:37.763Z,69.40
2018-12-09T20:23:05.224Z,69.92
2018-12-09T20:25:32.649Z,70.12
2018-12-09T20:28:00.059Z,69.79
2018-12-09T20:30:27.846Z,69.41
2018-12-09T20:32:55.256Z,67.25
2018-12-09T20:35:22.672Z,65.65
2018-12-09T20:37:50.163Z,64.27
2018-12-09T20:40:17.571Z,63.96
2018-12-09T20:42:48.222Z,64.70
2018-12-09T20:45:12.423Z,64.52
2018-12-09T20:47:39.836Z,63.92
2018-12-09T20:50:07.280Z,63.67
2018-12-09T20:52:35.750Z,64.14
2018-12-09T20:55:03.180Z,65.64
2018-12-09T20:57:30.597Z,65.15
2018-12-09T20:59:58.014Z,64.46
2018-12-09T21:02:25.438Z,64.82
2018-12-09T21:04:52.855Z,65.88
2018-12-09T21:07:20.309Z,64.92
2018-12-09T21:09:47.825Z,64.34
2018-12-09T21:12:15.263Z,64.21
2018-12-09T21:14:47.546Z,63.86
2018-12-09T21:17:14.998Z,64.63
2018-12-09T21:19:42.429Z,65.15
2018-12-09T21:22:10.024Z,65.60
2018-12-09T21:24:37.413Z,66.01
2018-12-09T21:27:04.831Z,65.51
2018-12-09T21:29:32.355Z,64.88
2018-12-09T21:31:59.844Z,64.58
2018-12-09T21:34:27.300Z,62.38
2018-12-09T21:36:54.965Z,62.66
2018-12-09T21:39:22.373Z,64.58
2018-12-09T21:41:49.771Z,65.66
2018-12-09T21:44:18.038Z,65.58
2018-12-09T21:46:45.435Z,64.39
2018-12-09T21:49:12.873Z,65.17
2018-12-09T21:51:40.296Z,65.75
2018-12-09T21:54:07.754Z,64.74
2018-12-09T21:56:35.206Z,61.74
2018-12-09T21:59:03.493Z,62.25
2018-12-09T22:01:30.888Z,61.13
2018-12-09T22:03:58.345Z,60.07
2018-12-09T22:06:25.869Z,62.75
2018-12-09T22:08:54.320Z,64.35
2018-12-09T22:11:21.731Z,65.15
2018-12-09T22:13:49.168Z,66.13
2018-12-09T22:16:16.596Z,65.17
2018-12-09T22:18:44.088Z,63.30
2018-12-09T22:21:11.491Z,62.75
2018-12-09T22:23:38.993Z,61.72
2018-12-09T22:26:06.512Z,61.73
2018-12-09T22:28:33.914Z,62.78
2018-12-09T22:31:02.140Z,63.19
2018-12-09T22:33:29.563Z,63.68
2018-12-09T22:35:57.125Z,62.09
2018-12-09T22:38:24.837Z,62.40
2018-12-09T22:40:52.267Z,62.75
2018-12-09T22:43:19.686Z,62.44
2018-12-09T22:45:47.118Z,61.29
2018-12-09T22:48:14.555Z,61.87
2018-12-09T22:50:42.110Z,61.63
2018-12-09T22:53:09.528Z,61.94
2018-12-09T22:55:37.007Z,61.97
2018-12-09T22:58:04.419Z,61.56
2018-12-09T23:00:31.862Z,61.04
2018-12-09T23:03:02.223Z,61.54
2018-12-09T23:05:30.095Z,59.92
2018-12-09T23:07:57.513Z,59.64
2018-12-09T23:10:25.043Z,57.59
2018-12-09T23:12:52.502Z,57.08
2018-12-09T23:15:19.931Z,57.27
2018-12-09T23:17:47.397Z,56.20
2018-12-09T23:20:14.908Z,56.53
2018-12-09T23:22:42.378Z,56.16
2018-12-09T23:25:09.802Z,56.76
2018-12-09T23:27:37.209Z,57.07
2018-12-09T23:30:04.626Z,57.16
2018-12-09T23:32:32.067Z,57.63
2018-12-09T23:34:59.475Z,58.43
2018-12-09T23:37:26.907Z,57.71
2018-12-09T23:39:54.396Z,56.86
2018-12-09T23:42:21.803Z,56.94
2018-12-09T23:44:49.340Z,57.54
2018-12-09T23:47:17.717Z,57.09
2018-12-09T23:49:45.139Z,57.14
2018-12-09T23:52:12.563Z,58.79
2018-12-09T23:54:39.986Z,60.49
2018-12-09T23:57:07.395Z,62.42
2018-12-09T23:59:35.469Z,62.30
